Yorktown, Iowa
Current Conditions -  °F | °C
As of 12:15 PM on Monday 22 Dec 2014 (Local Time) from KICL Reporting Station
Unknown Precip Unknown Precip  
Wind Chill: 39°   Ceiling: 700
Heat Index: 43°   Visibility: 6mi
Dew Point: 41°   Wind: 6mph
Humidity: 93%   Direction: 160°SSE
Pressure: 29.49"   Gusts: NA
Location:  40.73°N, 95.16°W
Report Text: KICL 221815Z AUTO 16005KT 6SM -UP OVC007 06/05 A2949 RMK AO2
Loading
Personal Weather Stations






























Interactive Weather Map New forecast layout! Learn more

10-Day Weather Forecast

Advertisements
Track Severe Weather on mobile